createdAt,value
2022-12-11T00:00:56.288Z,-1.29
2022-12-11T00:03:24.677Z,-1.15
2022-12-11T00:05:53.712Z,-1.19
2022-12-11T00:08:21.678Z,-1.21
2022-12-11T00:10:50.173Z,-1.05
2022-12-11T00:13:18.532Z,-1.04
2022-12-11T00:15:46.199Z,-1.06
2022-12-11T00:18:14.920Z,-1.09
2022-12-11T00:20:42.653Z,-1.04
2022-12-11T00:23:13.343Z,-0.97
2022-12-11T00:25:43.828Z,-0.91
2022-12-11T00:28:12.311Z,-0.94
2022-12-11T00:30:41.300Z,-0.94
2022-12-11T00:33:12.949Z,-0.82
2022-12-11T00:35:42.443Z,-0.87
2022-12-11T00:38:17.133Z,-1.03
2022-12-11T00:40:45.771Z,-1.08
2022-12-11T00:43:14.787Z,-1.03
2022-12-11T00:45:44.119Z,-1.11
2022-12-11T00:48:13.505Z,-1.05
2022-12-11T00:50:41.776Z,-1.12
2022-12-11T00:53:09.656Z,-0.98
2022-12-11T00:55:41.129Z,-0.97
2022-12-11T00:58:09.582Z,-0.84
2022-12-11T01:00:38.600Z,-0.79
2022-12-11T01:03:07.095Z,-0.62
2022-12-11T01:05:36.097Z,-0.55
2022-12-11T01:08:04.181Z,-0.76
2022-12-11T01:10:32.675Z,-0.83
2022-12-11T01:13:03.342Z,-0.67
2022-12-11T01:15:36.403Z,-0.58
2022-12-11T01:18:06.826Z,-0.58
2022-12-11T01:20:53.744Z,-0.60
2022-12-11T01:23:21.587Z,-0.74
2022-12-11T01:25:49.866Z,-0.74
2022-12-11T01:28:18.826Z,-0.82
2022-12-11T01:30:47.171Z,-0.98
2022-12-11T01:33:15.247Z,-0.87
2022-12-11T01:35:42.910Z,-0.84
2022-12-11T01:38:11.263Z,-0.77
2022-12-11T01:40:39.259Z,-0.91
2022-12-11T01:43:08.667Z,-0.69
2022-12-11T01:45:41.287Z,-0.70
2022-12-11T01:48:12.022Z,-0.79
2022-12-11T01:50:45.326Z,-0.59
2022-12-11T01:53:19.981Z,-0.66
2022-12-11T01:55:49.904Z,-0.58
2022-12-11T01:58:19.126Z,-0.49
2022-12-11T02:00:48.146Z,-0.75
2022-12-11T02:03:15.798Z,-0.61
2022-12-11T02:05:43.826Z,-0.54
2022-12-11T02:08:12.000Z,-0.59
2022-12-11T02:10:53.346Z,-0.47
2022-12-11T02:13:27.075Z,-0.57
2022-12-11T02:16:06.894Z,-0.50
2022-12-11T02:18:40.509Z,-0.45
2022-12-11T02:21:14.308Z,-0.36
2022-12-11T02:24:01.336Z,-0.38
2022-12-11T02:26:42.308Z,-0.37
2022-12-11T02:29:18.892Z,-0.40
2022-12-11T02:31:52.216Z,-0.65
2022-12-11T02:34:26.286Z,-0.63
2022-12-11T02:37:01.422Z,-0.61
2022-12-11T02:39:30.349Z,-0.74
2022-12-11T02:41:59.917Z,-0.82
2022-12-11T02:44:34.300Z,-0.80
2022-12-11T02:47:05.914Z,-0.83
2022-12-11T02:49:35.377Z,-1.04
2022-12-11T02:52:06.567Z,-1.06
2022-12-11T02:54:39.034Z,-1.05
2022-12-11T02:57:13.019Z,-1.02
2022-12-11T02:59:45.088Z,-1.17
2022-12-11T03:02:14.615Z,-1.45
2022-12-11T03:04:44.311Z,-1.33
2022-12-11T03:07:16.033Z,-1.34
2022-12-11T03:09:46.470Z,-1.36
2022-12-11T03:12:17.895Z,-1.47
2022-12-11T03:14:47.979Z,-1.56
2022-12-11T03:17:18.843Z,-1.56
2022-12-11T03:19:54.072Z,-1.69
2022-12-11T03:22:30.285Z,-1.86
2022-12-11T03:25:03.891Z,-2.11
2022-12-11T03:27:38.137Z,-2.07
2022-12-11T03:30:11.400Z,-2.05
2022-12-11T03:32:43.562Z,-2.02
2022-12-11T03:35:19.367Z,-2.07
2022-12-11T03:37:49.224Z,-1.97
2022-12-11T03:40:20.025Z,-1.98
2022-12-11T03:42:52.655Z,-2.10
2022-12-11T03:45:23.799Z,-2.03
2022-12-11T03:47:54.856Z,-2.01
2022-12-11T03:50:23.953Z,-1.99
2022-12-11T03:52:53.412Z,-1.86
2022-12-11T03:55:23.602Z,-1.79
2022-12-11T03:57:51.884Z,-1.73
2022-12-11T04:00:23.180Z,-1.62
2022-12-11T04:03:13.696Z,-1.45
2022-12-11T04:05:42.867Z,-1.24
2022-12-11T04:08:11.575Z,-1.05
2022-12-11T04:10:39.645Z,-1.01
2022-12-11T04:13:08.257Z,-0.98
2022-12-11T04:15:37.353Z,-0.95
2022-12-11T04:18:23.694Z,-0.91
2022-12-11T04:21:12.004Z,-0.92
2022-12-11T04:23:57.185Z,-0.97
2022-12-11T04:26:25.219Z,-1.07
2022-12-11T04:28:52.949Z,-1.08
2022-12-11T04:31:24.186Z,-1.03
2022-12-11T04:33:51.866Z,-0.97
2022-12-11T04:36:19.829Z,-1.05
2022-12-11T04:38:47.855Z,-0.97
2022-12-11T04:41:17.239Z,-1.07
2022-12-11T04:43:46.236Z,-1.11
2022-12-11T04:46:19.943Z,-1.13
2022-12-11T04:48:55.479Z,-1.02
2022-12-11T04:51:24.921Z,-0.91
2022-12-11T04:53:53.391Z,-0.86
2022-12-11T04:56:21.403Z,-0.94
2022-12-11T04:58:50.072Z,-0.87
2022-12-11T05:01:20.425Z,-0.90
2022-12-11T05:03:49.858Z,-0.87
2022-12-11T05:06:17.726Z,-0.98
2022-12-11T05:08:46.357Z,-0.95
2022-12-11T05:11:16.066Z,-0.94
2022-12-11T05:13:44.873Z,-0.91
2022-12-11T05:16:15.448Z,-0.91
2022-12-11T05:18:45.170Z,-1.08
2022-12-11T05:21:16.211Z,-1.24
2022-12-11T05:23:45.149Z,-1.25
2022-12-11T05:26:15.987Z,-1.07
2022-12-11T05:28:45.202Z,-1.03
2022-12-11T05:31:15.006Z,-1.04
2022-12-11T05:33:43.359Z,-0.94
2022-12-11T05:36:17.644Z,-0.90
2022-12-11T05:38:46.837Z,-0.80
2022-12-11T05:41:16.170Z,-0.83
2022-12-11T05:43:44.031Z,-0.87
2022-12-11T05:46:14.193Z,-0.79
2022-12-11T05:48:42.916Z,-0.86
2022-12-11T05:51:11.348Z,-0.84
2022-12-11T05:53:42.025Z,-0.94
2022-12-11T05:56:12.315Z,-0.96
2022-12-11T05:58:40.656Z,-1.07
2022-12-11T06:01:09.112Z,-1.04
2022-12-11T06:03:37.188Z,-1.04
2022-12-11T06:06:05.954Z,-0.98
2022-12-11T06:08:34.866Z,-0.97
2022-12-11T06:11:04.533Z,-0.97
2022-12-11T06:13:32.506Z,-0.80
2022-12-11T06:16:02.037Z,-0.73
2022-12-11T06:18:30.889Z,-0.77
2022-12-11T06:20:58.548Z,-0.92
2022-12-11T06:23:27.081Z,-1.21
2022-12-11T06:25:54.724Z,-1.78
2022-12-11T06:28:24.273Z,-2.11
2022-12-11T06:30:52.225Z,-2.35
2022-12-11T06:33:20.170Z,-2.54
2022-12-11T06:35:47.821Z,-2.44
2022-12-11T06:38:15.836Z,-2.47
2022-12-11T06:40:43.480Z,-2.42
2022-12-11T06:43:11.143Z,-2.47
2022-12-11T06:45:40.198Z,-2.62
2022-12-11T06:48:08.232Z,-2.70
2022-12-11T06:50:35.856Z,-2.67
2022-12-11T06:53:04.201Z,-2.62
2022-12-11T06:55:31.885Z,-2.86
2022-12-11T06:57:59.870Z,-2.88
2022-12-11T07:00:27.854Z,-2.94
2022-12-11T07:02:56.868Z,-3.00
2022-12-11T07:05:24.732Z,-3.07
2022-12-11T07:07:54.494Z,-3.27
2022-12-11T07:10:23.309Z,-3.38
2022-12-11T07:12:53.080Z,-3.26
2022-12-11T07:15:21.222Z,-3.35
2022-12-11T07:17:48.829Z,-3.31
2022-12-11T07:20:18.411Z,-3.24
2022-12-11T07:22:46.998Z,-3.21
2022-12-11T07:25:15.651Z,-3.20
2022-12-11T07:27:43.499Z,-3.36
2022-12-11T07:30:12.304Z,-3.37
2022-12-11T07:32:40.065Z,-3.37
2022-12-11T07:35:08.668Z,-3.36
2022-12-11T07:37:38.131Z,-3.18
2022-12-11T07:40:06.753Z,-3.05
2022-12-11T07:42:34.400Z,-3.03
2022-12-11T07:45:03.157Z,-2.94
2022-12-11T07:47:30.807Z,-2.87
2022-12-11T07:49:59.123Z,-2.68
2022-12-11T07:52:26.883Z,-2.54
2022-12-11T07:54:56.299Z,-2.35
2022-12-11T07:57:23.937Z,-2.20
2022-12-11T07:59:52.221Z,-2.04
2022-12-11T08:02:19.854Z,-1.87
2022-12-11T08:04:47.945Z,-1.68
2022-12-11T08:07:15.640Z,-1.54
2022-12-11T08:09:43.615Z,-1.46
2022-12-11T08:12:13.856Z,-1.40
2022-12-11T08:14:41.518Z,-1.30
2022-12-11T08:17:09.180Z,-1.31
2022-12-11T08:19:37.487Z,-1.34
2022-12-11T08:22:05.164Z,-1.25
2022-12-11T08:24:33.631Z,-1.10
2022-12-11T08:27:01.275Z,-1.09
2022-12-11T08:29:30.644Z,-0.98
2022-12-11T08:31:58.300Z,-0.81
2022-12-11T08:34:26.268Z,-0.43
2022-12-11T08:36:54.164Z,0.82
2022-12-11T08:39:21.790Z,2.75
2022-12-11T08:41:49.805Z,4.74
2022-12-11T08:44:17.596Z,5.89
2022-12-11T08:46:47.318Z,6.97
2022-12-11T08:49:15.040Z,7.81
2022-12-11T08:51:42.690Z,8.08
2022-12-11T08:54:10.827Z,8.57
2022-12-11T08:56:39.039Z,8.84
2022-12-11T08:59:06.776Z,8.99
2022-12-11T09:01:35.152Z,9.06
2022-12-11T09:04:04.328Z,9.53
2022-12-11T09:06:34.791Z,9.49
2022-12-11T09:09:03.785Z,9.43
2022-12-11T09:11:34.957Z,9.47
2022-12-11T09:14:07.259Z,9.46
2022-12-11T09:16:40.881Z,9.27
2022-12-11T09:19:13.978Z,7.85
2022-12-11T09:21:43.084Z,6.16
2022-12-11T09:24:11.771Z,6.49
2022-12-11T09:26:40.306Z,6.74
2022-12-11T09:29:08.716Z,6.71
2022-12-11T09:31:37.702Z,4.91
2022-12-11T09:34:08.491Z,2.94
2022-12-11T09:36:40.060Z,1.62
2022-12-11T09:39:09.796Z,1.39
2022-12-11T09:41:40.490Z,1.65
2022-12-11T09:44:18.871Z,3.29
2022-12-11T09:46:47.898Z,4.73
2022-12-11T09:49:25.543Z,4.91
2022-12-11T09:52:01.882Z,5.28
2022-12-11T09:54:29.562Z,6.30
2022-12-11T09:57:06.225Z,5.90
2022-12-11T09:59:43.233Z,7.68
2022-12-11T10:02:28.569Z,8.28
2022-12-11T10:05:05.231Z,5.95
2022-12-11T10:07:43.001Z,4.28
2022-12-11T10:10:22.136Z,3.41
2022-12-11T10:13:01.023Z,2.13
2022-12-11T10:15:36.814Z,2.50
2022-12-11T10:18:10.589Z,3.04
2022-12-11T10:20:41.093Z,4.61
2022-12-11T10:23:16.560Z,5.30
2022-12-11T10:25:48.898Z,5.74
2022-12-11T10:28:19.864Z,5.96
2022-12-11T10:30:50.885Z,4.00
2022-12-11T10:33:22.564Z,3.83
2022-12-11T10:35:53.820Z,2.36
2022-12-11T10:38:28.552Z,2.38
2022-12-11T10:40:58.854Z,1.76
2022-12-11T10:43:38.476Z,1.84
2022-12-11T10:46:07.896Z,1.00
2022-12-11T10:48:35.876Z,0.28
2022-12-11T10:51:07.037Z,0.41
2022-12-11T10:53:37.028Z,0.30
2022-12-11T10:56:04.904Z,0.69
2022-12-11T10:58:34.477Z,0.55
2022-12-11T11:01:08.738Z,0.79
2022-12-11T11:03:42.634Z,0.63
2022-12-11T11:06:17.307Z,0.60
2022-12-11T11:08:48.606Z,2.13
2022-12-11T11:11:26.887Z,3.59
2022-12-11T11:14:13.462Z,4.53
2022-12-11T11:16:43.633Z,6.36
2022-12-11T11:19:21.510Z,6.64
2022-12-11T11:21:52.235Z,8.45
2022-12-11T11:24:28.361Z,9.86
2022-12-11T11:27:12.820Z,10.30
2022-12-11T11:29:43.039Z,11.20
2022-12-11T11:32:20.787Z,12.33
2022-12-11T11:34:48.677Z,12.84
2022-12-11T11:37:24.813Z,13.06
2022-12-11T11:39:59.076Z,11.96
2022-12-11T11:42:37.624Z,10.29
2022-12-11T11:45:16.193Z,10.45
2022-12-11T11:47:52.258Z,8.34
2022-12-11T11:50:26.068Z,7.46
2022-12-11T11:53:00.679Z,7.11
2022-12-11T11:55:39.676Z,5.47
2022-12-11T11:58:14.602Z,5.33
2022-12-11T12:00:42.681Z,4.92
2022-12-11T12:03:13.281Z,4.39
2022-12-11T12:05:47.013Z,4.08
2022-12-11T12:08:23.113Z,3.53
2022-12-11T12:10:59.699Z,3.52
2022-12-11T12:13:49.629Z,4.73
2022-12-11T12:16:52.075Z,4.34
2022-12-11T12:19:29.541Z,4.59
2022-12-11T12:21:58.151Z,4.14
2022-12-11T12:24:35.092Z,3.14
2022-12-11T12:27:50.001Z,1.31
2022-12-11T12:30:06.561Z,1.00
2022-12-11T12:32:47.745Z,1.26
2022-12-11T12:35:27.075Z,1.08
2022-12-11T12:37:59.836Z,1.39
2022-12-11T12:40:33.085Z,1.10
2022-12-11T12:43:14.971Z,1.40
2022-12-11T12:45:50.393Z,1.64
2022-12-11T12:48:19.216Z,1.82
2022-12-11T12:50:50.562Z,1.86
2022-12-11T12:53:22.240Z,1.30
2022-12-11T12:55:50.596Z,1.41
2022-12-11T12:58:31.876Z,1.67
2022-12-11T13:01:09.692Z,1.88
2022-12-11T13:03:50.885Z,1.64
2022-12-11T13:06:30.336Z,2.04
2022-12-11T13:08:59.082Z,1.71
2022-12-11T13:11:33.520Z,1.93
2022-12-11T13:14:08.078Z,2.83
2022-12-11T13:16:39.206Z,3.10
2022-12-11T13:19:19.092Z,2.16
2022-12-11T13:21:57.034Z,1.96
2022-12-11T13:24:29.381Z,1.38
2022-12-11T13:26:57.082Z,1.11
2022-12-11T13:29:37.254Z,1.37
2022-12-11T13:32:22.166Z,1.46
2022-12-11T13:34:55.990Z,1.87
2022-12-11T13:37:28.269Z,1.82
2022-12-11T13:39:56.815Z,2.27
2022-12-11T13:42:30.697Z,2.52
2022-12-11T13:45:01.570Z,1.95
2022-12-11T13:47:31.744Z,1.92
2022-12-11T13:50:08.461Z,1.64
2022-12-11T13:52:36.138Z,1.70
2022-12-11T13:55:15.230Z,1.82
2022-12-11T13:57:46.211Z,2.06
2022-12-11T14:00:24.456Z,1.91
2022-12-11T14:02:53.998Z,2.25
2022-12-11T14:05:23.248Z,2.40
2022-12-11T14:07:53.573Z,2.47
2022-12-11T14:10:24.699Z,2.09
2022-12-11T14:12:54.921Z,2.06
2022-12-11T14:15:24.500Z,1.83
2022-12-11T14:17:52.248Z,1.88
2022-12-11T14:20:23.173Z,1.84
2022-12-11T14:22:51.156Z,1.50
2022-12-11T14:25:24.138Z,1.36
2022-12-11T14:27:54.223Z,1.27
2022-12-11T14:30:26.324Z,1.13
2022-12-11T14:32:57.914Z,1.29
2022-12-11T14:35:30.883Z,1.38
2022-12-11T14:38:06.977Z,1.36
2022-12-11T14:40:39.442Z,1.43
2022-12-11T14:43:14.432Z,1.46
2022-12-11T14:45:48.136Z,1.34
2022-12-11T14:48:22.096Z,0.83
2022-12-11T14:50:53.082Z,0.55
2022-12-11T14:53:24.244Z,0.34
2022-12-11T14:55:53.950Z,0.07
2022-12-11T14:58:23.719Z,0.05
2022-12-11T15:01:03.791Z,0.40
2022-12-11T15:03:34.240Z,0.42
2022-12-11T15:06:04.246Z,0.41
2022-12-11T15:08:33.863Z,0.24
2022-12-11T15:11:07.633Z,0.26
2022-12-11T15:13:37.439Z,0.00
2022-12-11T15:16:10.405Z,-0.25
2022-12-11T15:18:42.228Z,-0.37
2022-12-11T15:21:12.485Z,-0.48
2022-12-11T15:23:50.736Z,-0.34
2022-12-11T15:26:18.808Z,-0.40
2022-12-11T15:28:46.697Z,-0.61
2022-12-11T15:31:27.279Z,-0.59
2022-12-11T15:33:55.477Z,-0.77
2022-12-11T15:36:26.964Z,-0.93
2022-12-11T15:38:54.626Z,-0.99
2022-12-11T15:41:24.885Z,-1.00
2022-12-11T15:43:58.597Z,-1.22
2022-12-11T15:46:28.139Z,-1.14
2022-12-11T15:48:57.392Z,-1.16
2022-12-11T15:51:27.665Z,-1.34
2022-12-11T15:53:55.649Z,-1.39
2022-12-11T15:56:23.473Z,-1.41
2022-12-11T15:58:51.221Z,-1.58
2022-12-11T16:01:19.571Z,-1.55
2022-12-11T16:03:50.299Z,-1.44
2022-12-11T16:06:18.464Z,-1.41
2022-12-11T16:08:46.339Z,-1.46
2022-12-11T16:11:15.402Z,-1.44
2022-12-11T16:13:43.060Z,-1.28
2022-12-11T16:16:11.591Z,-1.11
2022-12-11T16:18:39.857Z,-1.31
2022-12-11T16:21:10.317Z,-1.52
2022-12-11T16:23:38.020Z,-1.48
2022-12-11T16:26:24.688Z,-1.51
2022-12-11T16:28:52.499Z,-1.49
2022-12-11T16:31:20.356Z,-1.45
2022-12-11T16:33:48.083Z,-1.57
2022-12-11T16:36:19.748Z,-1.53
2022-12-11T16:38:53.604Z,-1.63
2022-12-11T16:41:23.044Z,-1.60
2022-12-11T16:43:50.804Z,-1.38
2022-12-11T16:46:19.436Z,-1.43
2022-12-11T16:48:48.119Z,-1.41
2022-12-11T16:51:17.917Z,-1.49
2022-12-11T16:53:46.068Z,-1.64
2022-12-11T16:56:13.860Z,-1.55
2022-12-11T16:58:41.818Z,-1.53
2022-12-11T17:01:12.103Z,-1.31
2022-12-11T17:03:42.108Z,-1.40
2022-12-11T17:06:10.563Z,-1.48
2022-12-11T17:08:42.735Z,-1.35
2022-12-11T17:11:12.267Z,-1.44
2022-12-11T17:13:40.457Z,-1.41
2022-12-11T17:16:09.637Z,-1.27
2022-12-11T17:18:38.438Z,-1.26
2022-12-11T17:21:07.729Z,-1.35
2022-12-11T17:23:35.759Z,-1.33
2022-12-11T17:26:05.086Z,-1.52
2022-12-11T17:28:33.210Z,-1.73
2022-12-11T17:31:00.912Z,-1.57
2022-12-11T17:33:29.634Z,-1.72
2022-12-11T17:36:00.378Z,-1.76
2022-12-11T17:38:28.791Z,-1.65
2022-12-11T17:40:56.532Z,-1.66
2022-12-11T17:43:26.235Z,-1.81
2022-12-11T17:45:56.183Z,-1.77
2022-12-11T17:48:24.060Z,-1.86
2022-12-11T17:50:53.908Z,-1.91
2022-12-11T17:53:23.330Z,-1.78
2022-12-11T17:55:51.830Z,-1.88
2022-12-11T17:58:22.991Z,-2.07
2022-12-11T18:00:54.399Z,-2.07
2022-12-11T18:03:22.605Z,-2.03
2022-12-11T18:05:54.228Z,-2.11
2022-12-11T18:08:25.501Z,-2.17
2022-12-11T18:10:54.078Z,-2.20
2022-12-11T18:13:23.151Z,-2.17
2022-12-11T18:16:02.465Z,-2.27
2022-12-11T18:18:30.801Z,-2.25
2022-12-11T18:20:58.947Z,-2.13
2022-12-11T18:23:26.752Z,-2.13
2022-12-11T18:25:55.015Z,-2.26
2022-12-11T18:28:23.340Z,-2.28
2022-12-11T18:30:51.040Z,-2.35
2022-12-11T18:33:20.379Z,-2.54
2022-12-11T18:35:50.233Z,-2.60
2022-12-11T18:38:18.661Z,-2.87
2022-12-11T18:40:46.277Z,-2.75
2022-12-11T18:43:14.709Z,-2.65
2022-12-11T18:45:44.824Z,-2.67
2022-12-11T18:48:14.105Z,-2.60
2022-12-11T18:50:46.964Z,-2.58
2022-12-11T18:53:15.968Z,-2.75
2022-12-11T18:55:44.517Z,-2.82
2022-12-11T18:58:13.367Z,-2.80
2022-12-11T19:00:42.452Z,-2.72
2022-12-11T19:03:11.729Z,-2.65
2022-12-11T19:05:42.377Z,-2.57
2022-12-11T19:08:13.724Z,-2.46
2022-12-11T19:10:43.773Z,-2.43
2022-12-11T19:13:11.964Z,-2.40
2022-12-11T19:15:41.435Z,-2.42
2022-12-11T19:18:09.832Z,-2.37
2022-12-11T19:21:03.228Z,-2.35
2022-12-11T19:23:27.592Z,-2.32
2022-12-11T19:25:55.727Z,-2.26
2022-12-11T19:28:24.721Z,-2.26
2022-12-11T19:30:52.692Z,-2.30
2022-12-11T19:33:21.081Z,-2.23
2022-12-11T19:35:48.805Z,-2.18
2022-12-11T19:38:16.448Z,-2.16
2022-12-11T19:40:45.815Z,-2.20
2022-12-11T19:43:13.449Z,-2.24
2022-12-11T19:45:41.470Z,-2.24
2022-12-11T19:48:09.135Z,-2.24
2022-12-11T19:50:37.647Z,-2.30
2022-12-11T19:53:05.290Z,-2.36
2022-12-11T19:55:33.099Z,-2.33
2022-12-11T19:58:02.260Z,-2.32
2022-12-11T20:00:30.624Z,-2.20
2022-12-11T20:02:58.317Z,-2.17
2022-12-11T20:05:26.356Z,-2.08
2022-12-11T20:07:54.045Z,-1.97
2022-12-11T20:10:22.250Z,-1.91
2022-12-11T20:12:49.952Z,-1.87
2022-12-11T20:15:20.668Z,-1.83
2022-12-11T20:17:48.311Z,-1.77
2022-12-11T20:20:15.945Z,-1.79
2022-12-11T20:22:43.635Z,-1.78
2022-12-11T20:25:12.394Z,-1.87
2022-12-11T20:27:40.555Z,-1.87
2022-12-11T20:30:09.182Z,-1.88
2022-12-11T20:32:38.590Z,-1.89
2022-12-11T20:35:09.492Z,-1.95
2022-12-11T20:37:37.307Z,-1.88
2022-12-11T20:40:07.546Z,-1.80
2022-12-11T20:42:35.213Z,-1.79
2022-12-11T20:45:03.598Z,-1.74
2022-12-11T20:47:31.472Z,-1.76
2022-12-11T20:50:00.930Z,-1.76
2022-12-11T20:52:29.062Z,-1.84
2022-12-11T20:54:56.714Z,-1.94
2022-12-11T20:57:24.342Z,-2.07
2022-12-11T20:59:52.010Z,-2.09
2022-12-11T21:02:20.137Z,-2.22
2022-12-11T21:04:47.889Z,-2.30
2022-12-11T21:07:17.293Z,-2.34
2022-12-11T21:09:44.956Z,-2.26
2022-12-11T21:12:12.998Z,-2.18
2022-12-11T21:14:40.786Z,-2.19
2022-12-11T21:17:08.451Z,-2.13
2022-12-11T21:19:36.068Z,-2.17
2022-12-11T21:22:04.702Z,-2.21
2022-12-11T21:24:34.024Z,-2.24
2022-12-11T21:27:01.696Z,-2.40
2022-12-11T21:29:30.214Z,-2.53
2022-12-11T21:31:58.553Z,-2.70
2022-12-11T21:34:27.425Z,-2.85
2022-12-11T21:36:57.412Z,-2.97
2022-12-11T21:39:26.995Z,-3.09
2022-12-11T21:41:58.549Z,-3.20
2022-12-11T21:47:15.516Z,-3.38
2022-12-11T21:49:43.349Z,-3.40
2022-12-11T21:52:11.766Z,-3.57
2022-12-11T21:54:39.524Z,-3.63
2022-12-11T21:57:08.580Z,-3.67
2022-12-11T21:59:36.333Z,-4.11
2022-12-11T22:02:04.613Z,-4.12
2022-12-11T22:04:32.703Z,-4.03
2022-12-11T22:07:00.789Z,-4.04
2022-12-11T22:09:28.409Z,-3.97
2022-12-11T22:11:58.593Z,-4.16
2022-12-11T22:14:27.912Z,-4.39
2022-12-11T22:16:55.668Z,-4.41
2022-12-11T22:19:25.615Z,-4.31
2022-12-11T22:21:56.771Z,-4.28
2022-12-11T22:24:24.411Z,-4.78
2022-12-11T22:26:52.428Z,-4.77
2022-12-11T22:29:20.067Z,-4.91
2022-12-11T22:31:49.062Z,-4.92
2022-12-11T22:34:16.734Z,-4.95
2022-12-11T22:36:44.805Z,-5.13
2022-12-11T22:39:12.990Z,-5.27
2022-12-11T22:41:42.225Z,-5.22
2022-12-11T22:44:15.699Z,-5.13
2022-12-11T22:46:49.678Z,-5.06
2022-12-11T22:49:20.243Z,-5.03
2022-12-11T22:51:47.963Z,-5.04
2022-12-11T22:54:15.648Z,-4.95
2022-12-11T22:56:43.332Z,-4.91
2022-12-11T22:59:11.159Z,-4.83
2022-12-11T23:01:38.785Z,-4.81
2022-12-11T23:04:06.497Z,-4.68
2022-12-11T23:06:35.526Z,-4.51
2022-12-11T23:09:04.468Z,-4.31
2022-12-11T23:11:36.219Z,-4.13
2022-12-11T23:14:05.024Z,-4.09
2022-12-11T23:16:32.886Z,-3.96
2022-12-11T23:19:02.172Z,-4.00
2022-12-11T23:21:29.893Z,-4.03
2022-12-11T23:24:00.087Z,-4.09
2022-12-11T23:26:29.581Z,-4.21
2022-12-11T23:28:59.325Z,-4.30
2022-12-11T23:31:28.182Z,-4.19
2022-12-11T23:33:56.069Z,-4.31
2022-12-11T23:36:24.828Z,-4.49
2022-12-11T23:38:54.952Z,-4.37
2022-12-11T23:41:24.731Z,-4.39
2022-12-11T23:43:53.193Z,-4.54
2022-12-11T23:46:24.182Z,-4.61
2022-12-11T23:48:53.266Z,-4.56
2022-12-11T23:51:22.939Z,-4.57
2022-12-11T23:53:51.392Z,-4.46
2022-12-11T23:56:21.933Z,-4.33
2022-12-11T23:58:53.143Z,-4.21
